sensor_id;sensor_type;location;lat;lon;timestamp;P1;durP1;ratioP1;P2;durP2;ratioP2
32790;SDS011;19143;59.322;14.502;2023-07-24T00:02:20;2.03;;;1.93;;
32790;SDS011;19143;59.322;14.502;2023-07-24T00:04:47;2.10;;;2.00;;
32790;SDS011;19143;59.322;14.502;2023-07-24T00:07:13;6.00;;;2.30;;
32790;SDS011;19143;59.322;14.502;2023-07-24T00:09:40;2.23;;;2.07;;
32790;SDS011;19143;59.322;14.502;2023-07-24T00:12:07;3.03;;;2.40;;
32790;SDS011;19143;59.322;14.502;2023-07-24T00:14:35;4.23;;;2.00;;
32790;SDS011;19143;59.322;14.502;2023-07-24T00:17:02;3.97;;;1.90;;
32790;SDS011;19143;59.322;14.502;2023-07-24T00:19:28;2.10;;;2.00;;
32790;SDS011;19143;59.322;14.502;2023-07-24T00:21:55;2.80;;;2.00;;
32790;SDS011;19143;59.322;14.502;2023-07-24T00:24:22;4.73;;;2.23;;
32790;SDS011;19143;59.322;14.502;2023-07-24T00:26:49;2.53;;;2.33;;
32790;SDS011;19143;59.322;14.502;2023-07-24T00:29:15;2.53;;;2.00;;
32790;SDS011;19143;59.322;14.502;2023-07-24T00:31:43;1.97;;;1.77;;
32790;SDS011;19143;59.322;14.502;2023-07-24T00:34:10;1.90;;;1.80;;
32790;SDS011;19143;59.322;14.502;2023-07-24T00:36:37;1.70;;;1.70;;
32790;SDS011;19143;59.322;14.502;2023-07-24T00:39:03;1.90;;;1.80;;
32790;SDS011;19143;59.322;14.502;2023-07-24T00:41:30;3.90;;;1.90;;
32790;SDS011;19143;59.322;14.502;2023-07-24T00:43:57;2.10;;;2.00;;
32790;SDS011;19143;59.322;14.502;2023-07-24T00:46:23;1.77;;;1.77;;
32790;SDS011;19143;59.322;14.502;2023-07-24T00:48:52;2.20;;;2.00;;
32790;SDS011;19143;59.322;14.502;2023-07-24T00:51:19;4.30;;;2.00;;
32790;SDS011;19143;59.322;14.502;2023-07-24T00:53:45;2.20;;;2.10;;
32790;SDS011;19143;59.322;14.502;2023-07-24T00:56:12;3.57;;;2.00;;
32790;SDS011;19143;59.322;14.502;2023-07-24T00:58:39;3.93;;;2.30;;
32790;SDS011;19143;59.322;14.502;2023-07-24T01:01:06;2.20;;;1.93;;
32790;SDS011;19143;59.322;14.502;2023-07-24T01:03:33;2.00;;;1.90;;
32790;SDS011;19143;59.322;14.502;2023-07-24T01:06:02;5.23;;;2.00;;
32790;SDS011;19143;59.322;14.502;2023-07-24T01:08:28;2.20;;;2.00;;
32790;SDS011;19143;59.322;14.502;2023-07-24T01:10:56;2.23;;;2.13;;
32790;SDS011;19143;59.322;14.502;2023-07-24T01:13:24;2.40;;;2.20;;
32790;SDS011;19143;59.322;14.502;2023-07-24T01:15:54;3.17;;;1.80;;
32790;SDS011;19143;59.322;14.502;2023-07-24T01:18:21;2.17;;;2.07;;
32790;SDS011;19143;59.322;14.502;2023-07-24T01:20:50;3.03;;;1.90;;
32790;SDS011;19143;59.322;14.502;2023-07-24T01:23:23;2.10;;;2.00;;
32790;SDS011;19143;59.322;14.502;2023-07-24T01:25:57;1.93;;;1.83;;
32790;SDS011;19143;59.322;14.502;2023-07-24T01:28:24;1.93;;;1.70;;
32790;SDS011;19143;59.322;14.502;2023-07-24T01:30:51;4.20;;;1.67;;
32790;SDS011;19143;59.322;14.502;2023-07-24T01:33:18;1.90;;;1.80;;
32790;SDS011;19143;59.322;14.502;2023-07-24T01:35:45;2.70;;;1.90;;
32790;SDS011;19143;59.322;14.502;2023-07-24T01:38:13;2.70;;;1.70;;
32790;SDS011;19143;59.322;14.502;2023-07-24T01:40:39;1.93;;;1.83;;
32790;SDS011;19143;59.322;14.502;2023-07-24T01:43:08;1.93;;;1.83;;
32790;SDS011;19143;59.322;14.502;2023-07-24T01:45:35;1.93;;;1.57;;
32790;SDS011;19143;59.322;14.502;2023-07-24T01:48:03;1.97;;;1.80;;
32790;SDS011;19143;59.322;14.502;2023-07-24T01:50:29;6.00;;;2.03;;
32790;SDS011;19143;59.322;14.502;2023-07-24T01:52:56;2.97;;;1.80;;
32790;SDS011;19143;59.322;14.502;2023-07-24T01:55:23;4.47;;;1.90;;
32790;SDS011;19143;59.322;14.502;2023-07-24T01:57:49;3.30;;;2.13;;
32790;SDS011;19143;59.322;14.502;2023-07-24T02:00:17;2.07;;;1.97;;
32790;SDS011;19143;59.322;14.502;2023-07-24T02:02:44;1.97;;;1.87;;
32790;SDS011;19143;59.322;14.502;2023-07-24T02:05:11;3.83;;;2.47;;
32790;SDS011;19143;59.322;14.502;2023-07-24T02:07:37;1.80;;;1.70;;
32790;SDS011;19143;59.322;14.502;2023-07-24T02:10:05;2.03;;;1.93;;
32790;SDS011;19143;59.322;14.502;2023-07-24T02:12:31;3.43;;;2.00;;
32790;SDS011;19143;59.322;14.502;2023-07-24T02:14:58;2.30;;;1.87;;
32790;SDS011;19143;59.322;14.502;2023-07-24T02:17:26;5.83;;;2.07;;
32790;SDS011;19143;59.322;14.502;2023-07-24T02:19:52;7.70;;;2.00;;
32790;SDS011;19143;59.322;14.502;2023-07-24T02:22:19;3.00;;;2.10;;
32790;SDS011;19143;59.322;14.502;2023-07-24T02:24:46;1.80;;;1.70;;
32790;SDS011;19143;59.322;14.502;2023-07-24T02:27:12;3.57;;;1.60;;
32790;SDS011;19143;59.322;14.502;2023-07-24T02:29:39;2.10;;;2.00;;
32790;SDS011;19143;59.322;14.502;2023-07-24T02:32:06;1.97;;;1.80;;
32790;SDS011;19143;59.322;14.502;2023-07-24T02:34:35;1.83;;;1.80;;
32790;SDS011;19143;59.322;14.502;2023-07-24T02:37:01;5.83;;;2.00;;
32790;SDS011;19143;59.322;14.502;2023-07-24T02:39:28;2.07;;;1.97;;
32790;SDS011;19143;59.322;14.502;2023-07-24T02:41:55;2.47;;;2.27;;
32790;SDS011;19143;59.322;14.502;2023-07-24T02:44:21;1.97;;;1.93;;
32790;SDS011;19143;59.322;14.502;2023-07-24T02:46:48;2.10;;;2.00;;
32790;SDS011;19143;59.322;14.502;2023-07-24T02:49:14;1.67;;;1.57;;
32790;SDS011;19143;59.322;14.502;2023-07-24T02:51:43;4.00;;;1.90;;
32790;SDS011;19143;59.322;14.502;2023-07-24T02:54:10;6.40;;;2.23;;
32790;SDS011;19143;59.322;14.502;2023-07-24T02:56:36;1.83;;;1.83;;
32790;SDS011;19143;59.322;14.502;2023-07-24T02:59:04;2.33;;;2.10;;
32790;SDS011;19143;59.322;14.502;2023-07-24T03:01:30;1.63;;;1.63;;
32790;SDS011;19143;59.322;14.502;2023-07-24T03:03:57;1.80;;;1.70;;
32790;SDS011;19143;59.322;14.502;2023-07-24T03:06:25;2.00;;;1.90;;
32790;SDS011;19143;59.322;14.502;2023-07-24T03:09:00;2.20;;;1.97;;
32790;SDS011;19143;59.322;14.502;2023-07-24T03:11:27;1.73;;;1.73;;
32790;SDS011;19143;59.322;14.502;2023-07-24T03:13:53;2.83;;;2.10;;
32790;SDS011;19143;59.322;14.502;2023-07-24T03:16:19;2.30;;;2.20;;
32790;SDS011;19143;59.322;14.502;2023-07-24T03:18:46;1.97;;;1.90;;
32790;SDS011;19143;59.322;14.502;2023-07-24T03:21:12;2.57;;;1.90;;
32790;SDS011;19143;59.322;14.502;2023-07-24T03:23:39;2.00;;;1.90;;
32790;SDS011;19143;59.322;14.502;2023-07-24T03:26:07;3.30;;;1.93;;
32790;SDS011;19143;59.322;14.502;2023-07-24T03:28:33;1.90;;;1.87;;
32790;SDS011;19143;59.322;14.502;2023-07-24T03:31:00;5.13;;;1.90;;
32790;SDS011;19143;59.322;14.502;2023-07-24T03:33:27;1.70;;;1.70;;
32790;SDS011;19143;59.322;14.502;2023-07-24T03:35:53;1.83;;;1.73;;
32790;SDS011;19143;59.322;14.502;2023-07-24T03:38:20;1.70;;;1.60;;
32790;SDS011;19143;59.322;14.502;2023-07-24T03:40:46;2.00;;;1.90;;
32790;SDS011;19143;59.322;14.502;2023-07-24T03:43:15;2.40;;;1.67;;
32790;SDS011;19143;59.322;14.502;2023-07-24T03:45:41;1.90;;;1.90;;
32790;SDS011;19143;59.322;14.502;2023-07-24T03:48:09;2.47;;;2.27;;
32790;SDS011;19143;59.322;14.502;2023-07-24T03:50:35;3.17;;;2.40;;
32790;SDS011;19143;59.322;14.502;2023-07-24T03:53:02;2.20;;;2.10;;
32790;SDS011;19143;59.322;14.502;2023-07-24T03:55:28;2.60;;;2.20;;
32790;SDS011;19143;59.322;14.502;2023-07-24T03:57:55;10.40;;;4.03;;
32790;SDS011;19143;59.322;14.502;2023-07-24T04:00:23;2.80;;;2.60;;
32790;SDS011;19143;59.322;14.502;2023-07-24T04:02:49;2.70;;;2.50;;
32790;SDS011;19143;59.322;14.502;2023-07-24T04:05:16;3.60;;;2.20;;
32790;SDS011;19143;59.322;14.502;2023-07-24T04:07:43;2.17;;;2.07;;
32790;SDS011;19143;59.322;14.502;2023-07-24T04:10:09;2.37;;;2.00;;
32790;SDS011;19143;59.322;14.502;2023-07-24T04:12:36;1.97;;;1.97;;
32790;SDS011;19143;59.322;14.502;2023-07-24T04:15:02;1.83;;;1.83;;
32790;SDS011;19143;59.322;14.502;2023-07-24T04:17:31;2.03;;;1.90;;
32790;SDS011;19143;59.322;14.502;2023-07-24T04:19:57;2.83;;;2.40;;
32790;SDS011;19143;59.322;14.502;2023-07-24T04:22:25;2.10;;;2.00;;
32790;SDS011;19143;59.322;14.502;2023-07-24T04:24:51;1.90;;;1.80;;
32790;SDS011;19143;59.322;14.502;2023-07-24T04:27:18;2.33;;;2.23;;
32790;SDS011;19143;59.322;14.502;2023-07-24T04:29:44;1.60;;;1.60;;
32790;SDS011;19143;59.322;14.502;2023-07-24T04:32:11;2.00;;;1.90;;
32790;SDS011;19143;59.322;14.502;2023-07-24T04:34:39;1.97;;;1.90;;
32790;SDS011;19143;59.322;14.502;2023-07-24T04:37:06;2.20;;;1.90;;
32790;SDS011;19143;59.322;14.502;2023-07-24T04:39:32;2.07;;;1.97;;
32790;SDS011;19143;59.322;14.502;2023-07-24T04:41:59;1.97;;;1.90;;
32790;SDS011;19143;59.322;14.502;2023-07-24T04:44:26;2.37;;;1.83;;
32790;SDS011;19143;59.322;14.502;2023-07-24T04:46:52;2.67;;;1.90;;
32790;SDS011;19143;59.322;14.502;2023-07-24T04:49:20;3.47;;;1.93;;
32790;SDS011;19143;59.322;14.502;2023-07-24T04:51:48;2.00;;;1.90;;
32790;SDS011;19143;59.322;14.502;2023-07-24T04:54:15;3.60;;;2.00;;
32790;SDS011;19143;59.322;14.502;2023-07-24T04:56:42;1.70;;;1.60;;
32790;SDS011;19143;59.322;14.502;2023-07-24T04:59:08;1.47;;;1.47;;
32790;SDS011;19143;59.322;14.502;2023-07-24T05:01:35;2.20;;;1.70;;
32790;SDS011;19143;59.322;14.502;2023-07-24T05:04:02;2.50;;;1.70;;
32790;SDS011;19143;59.322;14.502;2023-07-24T05:06:32;1.80;;;1.70;;
32790;SDS011;19143;59.322;14.502;2023-07-24T05:09:13;1.70;;;1.60;;
32790;SDS011;19143;59.322;14.502;2023-07-24T05:11:39;1.60;;;1.60;;
32790;SDS011;19143;59.322;14.502;2023-07-24T05:14:07;1.70;;;1.60;;
32790;SDS011;19143;59.322;14.502;2023-07-24T05:16:33;3.33;;;1.80;;
32790;SDS011;19143;59.322;14.502;2023-07-24T05:19:00;1.50;;;1.50;;
32790;SDS011;19143;59.322;14.502;2023-07-24T05:21:27;1.57;;;1.47;;
32790;SDS011;19143;59.322;14.502;2023-07-24T05:23:53;1.70;;;1.70;;
32790;SDS011;19143;59.322;14.502;2023-07-24T05:26:21;1.70;;;1.60;;
32790;SDS011;19143;59.322;14.502;2023-07-24T05:28:48;1.80;;;1.70;;
32790;SDS011;19143;59.322;14.502;2023-07-24T05:31:15;1.80;;;1.70;;
32790;SDS011;19143;59.322;14.502;2023-07-24T05:33:41;1.50;;;1.50;;
32790;SDS011;19143;59.322;14.502;2023-07-24T05:36:08;2.00;;;1.70;;
32790;SDS011;19143;59.322;14.502;2023-07-24T05:38:34;1.40;;;1.40;;
32790;SDS011;19143;59.322;14.502;2023-07-24T05:41:02;1.47;;;1.47;;
32790;SDS011;19143;59.322;14.502;2023-07-24T05:43:30;1.50;;;1.50;;
32790;SDS011;19143;59.322;14.502;2023-07-24T05:45:57;1.77;;;1.67;;
32790;SDS011;19143;59.322;14.502;2023-07-24T05:48:24;3.73;;;1.73;;
32790;SDS011;19143;59.322;14.502;2023-07-24T05:50:51;1.50;;;1.50;;
32790;SDS011;19143;59.322;14.502;2023-07-24T05:53:18;1.43;;;1.43;;
32790;SDS011;19143;59.322;14.502;2023-07-24T05:55:44;1.50;;;1.50;;
32790;SDS011;19143;59.322;14.502;2023-07-24T05:58:11;1.60;;;1.50;;
32790;SDS011;19143;59.322;14.502;2023-07-24T06:00:39;1.87;;;1.53;;
32790;SDS011;19143;59.322;14.502;2023-07-24T06:03:05;1.60;;;1.50;;
32790;SDS011;19143;59.322;14.502;2023-07-24T06:05:32;1.30;;;1.30;;
32790;SDS011;19143;59.322;14.502;2023-07-24T06:07:59;1.40;;;1.30;;
32790;SDS011;19143;59.322;14.502;2023-07-24T06:10:25;1.97;;;1.57;;
32790;SDS011;19143;59.322;14.502;2023-07-24T06:12:52;1.23;;;1.23;;
32790;SDS011;19143;59.322;14.502;2023-07-24T06:15:19;3.67;;;1.17;;
32790;SDS011;19143;59.322;14.502;2023-07-24T06:17:47;3.13;;;1.13;;
32790;SDS011;19143;59.322;14.502;2023-07-24T06:20:13;1.00;;;1.00;;
32790;SDS011;19143;59.322;14.502;2023-07-24T06:22:40;1.30;;;1.20;;
32790;SDS011;19143;59.322;14.502;2023-07-24T06:25:06;1.03;;;1.00;;
32790;SDS011;19143;59.322;14.502;2023-07-24T06:27:33;2.17;;;1.10;;
32790;SDS011;19143;59.322;14.502;2023-07-24T06:30:00;1.60;;;1.50;;
32790;SDS011;19143;59.322;14.502;2023-07-24T06:32:26;1.10;;;1.10;;
32790;SDS011;19143;59.322;14.502;2023-07-24T06:34:55;1.20;;;1.20;;
32790;SDS011;19143;59.322;14.502;2023-07-24T06:37:21;1.20;;;1.20;;
32790;SDS011;19143;59.322;14.502;2023-07-24T06:39:48;1.20;;;1.20;;
32790;SDS011;19143;59.322;14.502;2023-07-24T06:42:14;1.30;;;1.30;;
32790;SDS011;19143;59.322;14.502;2023-07-24T06:44:41;1.17;;;1.10;;
32790;SDS011;19143;59.322;14.502;2023-07-24T06:47:08;1.20;;;1.20;;
32790;SDS011;19143;59.322;14.502;2023-07-24T06:49:41;2.70;;;1.30;;
32790;SDS011;19143;59.322;14.502;2023-07-24T06:52:09;1.43;;;1.33;;
32790;SDS011;19143;59.322;14.502;2023-07-24T06:54:36;1.13;;;1.13;;
32790;SDS011;19143;59.322;14.502;2023-07-24T06:57:02;1.10;;;1.10;;
32790;SDS011;19143;59.322;14.502;2023-07-24T06:59:29;1.17;;;1.17;;
32790;SDS011;19143;59.322;14.502;2023-07-24T07:01:55;1.63;;;1.33;;
32790;SDS011;19143;59.322;14.502;2023-07-24T07:04:22;1.13;;;1.13;;
32790;SDS011;19143;59.322;14.502;2023-07-24T07:06:49;1.33;;;1.23;;
32790;SDS011;19143;59.322;14.502;2023-07-24T07:09:17;1.20;;;1.10;;
32790;SDS011;19143;59.322;14.502;2023-07-24T07:11:43;3.60;;;1.40;;
32790;SDS011;19143;59.322;14.502;2023-07-24T07:14:10;1.27;;;1.27;;
32790;SDS011;19143;59.322;14.502;2023-07-24T07:16:37;1.33;;;1.27;;
32790;SDS011;19143;59.322;14.502;2023-07-24T07:19:04;1.63;;;1.60;;
32790;SDS011;19143;59.322;14.502;2023-07-24T07:21:31;2.33;;;1.23;;
32790;SDS011;19143;59.322;14.502;2023-07-24T07:23:58;3.90;;;1.20;;
32790;SDS011;19143;59.322;14.502;2023-07-24T07:26:26;1.40;;;1.40;;
32790;SDS011;19143;59.322;14.502;2023-07-24T07:28:54;1.30;;;1.30;;
32790;SDS011;19143;59.322;14.502;2023-07-24T07:31:21;1.47;;;1.37;;
32790;SDS011;19143;59.322;14.502;2023-07-24T07:33:47;1.40;;;1.30;;
32790;SDS011;19143;59.322;14.502;2023-07-24T07:36:14;2.93;;;1.10;;
32790;SDS011;19143;59.322;14.502;2023-07-24T07:38:43;1.90;;;1.40;;
32790;SDS011;19143;59.322;14.502;2023-07-24T07:41:09;1.60;;;1.50;;
32790;SDS011;19143;59.322;14.502;2023-07-24T07:43:37;2.23;;;1.20;;
32790;SDS011;19143;59.322;14.502;2023-07-24T07:46:04;2.73;;;1.30;;
32790;SDS011;19143;59.322;14.502;2023-07-24T07:48:31;3.30;;;1.50;;
32790;SDS011;19143;59.322;14.502;2023-07-24T07:50:58;2.33;;;1.60;;
32790;SDS011;19143;59.322;14.502;2023-07-24T07:53:25;1.40;;;1.27;;
32790;SDS011;19143;59.322;14.502;2023-07-24T07:55:55;1.53;;;1.50;;
32790;SDS011;19143;59.322;14.502;2023-07-24T07:58:22;2.73;;;1.77;;
32790;SDS011;19143;59.322;14.502;2023-07-24T08:00:50;3.73;;;1.70;;
32790;SDS011;19143;59.322;14.502;2023-07-24T08:03:17;2.63;;;1.60;;
32790;SDS011;19143;59.322;14.502;2023-07-24T08:05:43;7.23;;;1.60;;
32790;SDS011;19143;59.322;14.502;2023-07-24T08:08:10;1.40;;;1.40;;
32790;SDS011;19143;59.322;14.502;2023-07-24T08:10:37;1.50;;;1.40;;
32790;SDS011;19143;59.322;14.502;2023-07-24T08:13:04;1.80;;;1.70;;
32790;SDS011;19143;59.322;14.502;2023-07-24T08:15:33;1.90;;;1.80;;
32790;SDS011;19143;59.322;14.502;2023-07-24T08:18:01;2.27;;;1.67;;
32790;SDS011;19143;59.322;14.502;2023-07-24T08:20:28;1.77;;;1.70;;
32790;SDS011;19143;59.322;14.502;2023-07-24T08:22:54;1.50;;;1.50;;
32790;SDS011;19143;59.322;14.502;2023-07-24T08:25:21;1.50;;;1.50;;
32790;SDS011;19143;59.322;14.502;2023-07-24T08:27:47;1.60;;;1.60;;
32790;SDS011;19143;59.322;14.502;2023-07-24T08:30:14;1.80;;;1.70;;
32790;SDS011;19143;59.322;14.502;2023-07-24T08:32:41;1.67;;;1.57;;
32790;SDS011;19143;59.322;14.502;2023-07-24T08:35:09;1.63;;;1.60;;
32790;SDS011;19143;59.322;14.502;2023-07-24T08:37:35;3.77;;;1.67;;
32790;SDS011;19143;59.322;14.502;2023-07-24T08:40:02;1.67;;;1.57;;
32790;SDS011;19143;59.322;14.502;2023-07-24T08:42:29;4.43;;;1.40;;
32790;SDS011;19143;59.322;14.502;2023-07-24T08:44:56;2.07;;;1.77;;
32790;SDS011;19143;59.322;14.502;2023-07-24T08:47:23;1.40;;;1.40;;
32790;SDS011;19143;59.322;14.502;2023-07-24T08:49:50;1.80;;;1.70;;
32790;SDS011;19143;59.322;14.502;2023-07-24T08:52:18;1.70;;;1.60;;
32790;SDS011;19143;59.322;14.502;2023-07-24T08:54:44;1.60;;;1.50;;
32790;SDS011;19143;59.322;14.502;2023-07-24T08:57:11;3.40;;;1.70;;
32790;SDS011;19143;59.322;14.502;2023-07-24T08:59:38;1.83;;;1.40;;
32790;SDS011;19143;59.322;14.502;2023-07-24T09:02:05;1.43;;;1.43;;
32790;SDS011;19143;59.322;14.502;2023-07-24T09:04:34;1.80;;;1.70;;
32790;SDS011;19143;59.322;14.502;2023-07-24T09:07:01;4.53;;;1.43;;
32790;SDS011;19143;59.322;14.502;2023-07-24T09:09:30;5.93;;;1.50;;
32790;SDS011;19143;59.322;14.502;2023-07-24T09:11:57;1.43;;;1.43;;
32790;SDS011;19143;59.322;14.502;2023-07-24T09:14:25;1.50;;;1.50;;
32790;SDS011;19143;59.322;14.502;2023-07-24T09:17:02;1.50;;;1.40;;
32790;SDS011;19143;59.322;14.502;2023-07-24T09:19:29;1.90;;;1.80;;
32790;SDS011;19143;59.322;14.502;2023-07-24T09:21:56;2.17;;;1.60;;
32790;SDS011;19143;59.322;14.502;2023-07-24T09:24:22;2.50;;;1.30;;
32790;SDS011;19143;59.322;14.502;2023-07-24T09:26:51;1.63;;;1.53;;
32790;SDS011;19143;59.322;14.502;2023-07-24T09:29:17;1.57;;;1.47;;
32790;SDS011;19143;59.322;14.502;2023-07-24T09:31:45;1.80;;;1.70;;
32790;SDS011;19143;59.322;14.502;2023-07-24T09:34:16;1.47;;;1.40;;
32790;SDS011;19143;59.322;14.502;2023-07-24T09:36:43;1.43;;;1.40;;
32790;SDS011;19143;59.322;14.502;2023-07-24T09:39:09;4.00;;;1.57;;
32790;SDS011;19143;59.322;14.502;2023-07-24T09:41:37;2.80;;;1.50;;
32790;SDS011;19143;59.322;14.502;2023-07-24T09:44:05;1.60;;;1.50;;
32790;SDS011;19143;59.322;14.502;2023-07-24T09:46:31;2.83;;;1.63;;
32790;SDS011;19143;59.322;14.502;2023-07-24T09:48:58;1.43;;;1.43;;
32790;SDS011;19143;59.322;14.502;2023-07-24T09:51:25;1.60;;;1.50;;
32790;SDS011;19143;59.322;14.502;2023-07-24T09:53:55;1.10;;;1.10;;
32790;SDS011;19143;59.322;14.502;2023-07-24T09:56:24;1.23;;;1.23;;
32790;SDS011;19143;59.322;14.502;2023-07-24T09:58:52;1.10;;;1.10;;
32790;SDS011;19143;59.322;14.502;2023-07-24T10:01:22;2.83;;;1.20;;
32790;SDS011;19143;59.322;14.502;2023-07-24T10:03:49;1.10;;;1.10;;
32790;SDS011;19143;59.322;14.502;2023-07-24T10:06:16;1.07;;;1.07;;
32790;SDS011;19143;59.322;14.502;2023-07-24T10:08:43;1.83;;;1.17;;
32790;SDS011;19143;59.322;14.502;2023-07-24T10:11:11;1.03;;;1.03;;
32790;SDS011;19143;59.322;14.502;2023-07-24T10:13:38;1.10;;;1.10;;
32790;SDS011;19143;59.322;14.502;2023-07-24T10:16:05;0.90;;;0.90;;
32790;SDS011;19143;59.322;14.502;2023-07-24T10:18:35;1.00;;;1.00;;
32790;SDS011;19143;59.322;14.502;2023-07-24T10:21:02;1.20;;;1.10;;
32790;SDS011;19143;59.322;14.502;2023-07-24T10:23:30;1.00;;;1.00;;
32790;SDS011;19143;59.322;14.502;2023-07-24T10:26:01;0.70;;;0.70;;
32790;SDS011;19143;59.322;14.502;2023-07-24T10:28:32;1.00;;;1.00;;
32790;SDS011;19143;59.322;14.502;2023-07-24T10:31:00;0.80;;;0.80;;
32790;SDS011;19143;59.322;14.502;2023-07-24T10:33:29;1.67;;;1.20;;
32790;SDS011;19143;59.322;14.502;2023-07-24T10:36:04;0.90;;;0.90;;
32790;SDS011;19143;59.322;14.502;2023-07-24T10:38:33;0.90;;;0.90;;
32790;SDS011;19143;59.322;14.502;2023-07-24T10:41:01;0.80;;;0.80;;
32790;SDS011;19143;59.322;14.502;2023-07-24T10:43:28;1.00;;;1.00;;
32790;SDS011;19143;59.322;14.502;2023-07-24T10:45:55;1.00;;;1.00;;
32790;SDS011;19143;59.322;14.502;2023-07-24T10:48:24;1.20;;;1.20;;
32790;SDS011;19143;59.322;14.502;2023-07-24T10:50:51;1.20;;;1.20;;
32790;SDS011;19143;59.322;14.502;2023-07-24T10:53:20;1.10;;;1.10;;
32790;SDS011;19143;59.322;14.502;2023-07-24T10:55:47;0.90;;;0.90;;
32790;SDS011;19143;59.322;14.502;2023-07-24T10:58:15;0.90;;;0.90;;
32790;SDS011;19143;59.322;14.502;2023-07-24T11:00:42;1.30;;;1.20;;
32790;SDS011;19143;59.322;14.502;2023-07-24T11:03:09;2.00;;;1.20;;
32790;SDS011;19143;59.322;14.502;2023-07-24T11:05:38;1.20;;;1.07;;
32790;SDS011;19143;59.322;14.502;2023-07-24T11:08:08;1.20;;;1.20;;
32790;SDS011;19143;59.322;14.502;2023-07-24T11:10:36;1.30;;;1.20;;
32790;SDS011;19143;59.322;14.502;2023-07-24T11:13:03;1.10;;;1.10;;
32790;SDS011;19143;59.322;14.502;2023-07-24T11:15:36;1.50;;;1.50;;
32790;SDS011;19143;59.322;14.502;2023-07-24T11:18:03;1.60;;;1.50;;
32790;SDS011;19143;59.322;14.502;2023-07-24T11:20:33;1.20;;;1.20;;
32790;SDS011;19143;59.322;14.502;2023-07-24T11:23:02;1.53;;;1.40;;
32790;SDS011;19143;59.322;14.502;2023-07-24T11:25:29;1.40;;;1.30;;
32790;SDS011;19143;59.322;14.502;2023-07-24T11:27:57;1.60;;;1.50;;
32790;SDS011;19143;59.322;14.502;2023-07-24T11:30:24;1.50;;;1.50;;
32790;SDS011;19143;59.322;14.502;2023-07-24T11:32:50;2.00;;;1.30;;
32790;SDS011;19143;59.322;14.502;2023-07-24T11:35:19;1.60;;;1.50;;
32790;SDS011;19143;59.322;14.502;2023-07-24T11:37:46;2.23;;;1.63;;
32790;SDS011;19143;59.322;14.502;2023-07-24T11:40:13;4.20;;;1.60;;
32790;SDS011;19143;59.322;14.502;2023-07-24T11:42:42;2.07;;;1.67;;
32790;SDS011;19143;59.322;14.502;2023-07-24T11:45:10;2.40;;;1.40;;
32790;SDS011;19143;59.322;14.502;2023-07-24T11:47:44;1.70;;;1.60;;
32790;SDS011;19143;59.322;14.502;2023-07-24T11:50:11;3.17;;;1.83;;
32790;SDS011;19143;59.322;14.502;2023-07-24T11:52:38;1.70;;;1.60;;
32790;SDS011;19143;59.322;14.502;2023-07-24T11:55:05;1.77;;;1.67;;
32790;SDS011;19143;59.322;14.502;2023-07-24T11:57:32;1.70;;;1.60;;
32790;SDS011;19143;59.322;14.502;2023-07-24T11:59:59;3.90;;;1.97;;
32790;SDS011;19143;59.322;14.502;2023-07-24T12:02:27;1.70;;;1.60;;
32790;SDS011;19143;59.322;14.502;2023-07-24T12:04:55;3.70;;;1.53;;
32790;SDS011;19143;59.322;14.502;2023-07-24T12:07:23;1.47;;;1.47;;
32790;SDS011;19143;59.322;14.502;2023-07-24T12:09:50;1.50;;;1.50;;
32790;SDS011;19143;59.322;14.502;2023-07-24T12:12:17;3.63;;;1.80;;
32790;SDS011;19143;59.322;14.502;2023-07-24T12:14:44;1.70;;;1.60;;
32790;SDS011;19143;59.322;14.502;2023-07-24T12:17:11;1.70;;;1.60;;
32790;SDS011;19143;59.322;14.502;2023-07-24T12:19:40;1.60;;;1.50;;
32790;SDS011;19143;59.322;14.502;2023-07-24T12:22:07;1.40;;;1.40;;
32790;SDS011;19143;59.322;14.502;2023-07-24T12:24:34;2.87;;;1.90;;
32790;SDS011;19143;59.322;14.502;2023-07-24T12:27:00;1.83;;;1.77;;
32790;SDS011;19143;59.322;14.502;2023-07-24T12:29:27;1.63;;;1.63;;
32790;SDS011;19143;59.322;14.502;2023-07-24T12:31:54;4.37;;;1.70;;
32790;SDS011;19143;59.322;14.502;2023-07-24T12:34:21;1.50;;;1.50;;
32790;SDS011;19143;59.322;14.502;2023-07-24T12:36:49;1.40;;;1.40;;
32790;SDS011;19143;59.322;14.502;2023-07-24T12:39:17;1.60;;;1.50;;
32790;SDS011;19143;59.322;14.502;2023-07-24T12:41:44;1.83;;;1.73;;
32790;SDS011;19143;59.322;14.502;2023-07-24T12:44:10;2.97;;;1.67;;
32790;SDS011;19143;59.322;14.502;2023-07-24T12:46:39;1.80;;;1.70;;
32790;SDS011;19143;59.322;14.502;2023-07-24T12:49:05;4.87;;;1.40;;
32790;SDS011;19143;59.322;14.502;2023-07-24T12:51:32;1.50;;;1.40;;
32790;SDS011;19143;59.322;14.502;2023-07-24T12:54:00;1.30;;;1.30;;
32790;SDS011;19143;59.322;14.502;2023-07-24T12:56:27;1.27;;;1.20;;
32790;SDS011;19143;59.322;14.502;2023-07-24T12:59:01;2.83;;;1.20;;
32790;SDS011;19143;59.322;14.502;2023-07-24T13:01:28;1.67;;;1.40;;
32790;SDS011;19143;59.322;14.502;2023-07-24T13:03:55;1.30;;;1.30;;
32790;SDS011;19143;59.322;14.502;2023-07-24T13:06:21;7.40;;;1.50;;
32790;SDS011;19143;59.322;14.502;2023-07-24T13:08:48;1.40;;;1.30;;
32790;SDS011;19143;59.322;14.502;2023-07-24T13:11:16;1.40;;;1.27;;
32790;SDS011;19143;59.322;14.502;2023-07-24T13:13:56;1.40;;;1.40;;
32790;SDS011;19143;59.322;14.502;2023-07-24T13:16:23;1.40;;;1.40;;
32790;SDS011;19143;59.322;14.502;2023-07-24T13:18:50;0.77;;;0.77;;
32790;SDS011;19143;59.322;14.502;2023-07-24T13:21:17;0.53;;;0.53;;
32790;SDS011;19143;59.322;14.502;2023-07-24T13:23:43;2.93;;;0.67;;
32790;SDS011;19143;59.322;14.502;2023-07-24T13:26:11;0.87;;;0.80;;
32790;SDS011;19143;59.322;14.502;2023-07-24T13:28:39;1.20;;;1.10;;
32790;SDS011;19143;59.322;14.502;2023-07-24T13:31:13;0.70;;;0.70;;
32790;SDS011;19143;59.322;14.502;2023-07-24T13:33:39;0.90;;;0.90;;
32790;SDS011;19143;59.322;14.502;2023-07-24T13:36:06;2.53;;;0.70;;
32790;SDS011;19143;59.322;14.502;2023-07-24T13:38:33;1.17;;;0.90;;
32790;SDS011;19143;59.322;14.502;2023-07-24T13:40:59;0.67;;;0.63;;
32790;SDS011;19143;59.322;14.502;2023-07-24T13:43:26;2.53;;;0.80;;
32790;SDS011;19143;59.322;14.502;2023-07-24T13:45:54;0.73;;;0.73;;
32790;SDS011;19143;59.322;14.502;2023-07-24T13:48:29;0.80;;;0.80;;
32790;SDS011;19143;59.322;14.502;2023-07-24T13:50:56;0.70;;;0.70;;
32790;SDS011;19143;59.322;14.502;2023-07-24T13:53:25;0.47;;;0.47;;
32790;SDS011;19143;59.322;14.502;2023-07-24T13:55:51;0.70;;;0.70;;
32790;SDS011;19143;59.322;14.502;2023-07-24T13:58:18;0.80;;;0.80;;
32790;SDS011;19143;59.322;14.502;2023-07-24T14:00:45;2.20;;;0.60;;
32790;SDS011;19143;59.322;14.502;2023-07-24T14:03:13;0.77;;;0.77;;
32790;SDS011;19143;59.322;14.502;2023-07-24T14:05:39;0.80;;;0.80;;
32790;SDS011;19143;59.322;14.502;2023-07-24T14:08:06;4.67;;;0.87;;
32790;SDS011;19143;59.322;14.502;2023-07-24T14:10:33;0.70;;;0.60;;
32790;SDS011;19143;59.322;14.502;2023-07-24T14:12:59;0.30;;;0.30;;
32790;SDS011;19143;59.322;14.502;2023-07-24T14:15:26;0.50;;;0.50;;
32790;SDS011;19143;59.322;14.502;2023-07-24T14:17:53;0.67;;;0.50;;
32790;SDS011;19143;59.322;14.502;2023-07-24T14:20:21;0.67;;;0.67;;
32790;SDS011;19143;59.322;14.502;2023-07-24T14:22:48;0.60;;;0.60;;
32790;SDS011;19143;59.322;14.502;2023-07-24T14:25:15;1.07;;;0.50;;
32790;SDS011;19143;59.322;14.502;2023-07-24T14:27:41;2.67;;;0.70;;
32790;SDS011;19143;59.322;14.502;2023-07-24T14:30:08;0.60;;;0.60;;
32790;SDS011;19143;59.322;14.502;2023-07-24T14:32:35;0.60;;;0.50;;
32790;SDS011;19143;59.322;14.502;2023-07-24T14:35:01;0.80;;;0.80;;